createdAt,value
2022-08-09T00:00:04.345Z,102906.81
2022-08-09T00:02:33.881Z,102913.09
2022-08-09T00:06:12.069Z,102905.09
2022-08-09T00:07:48.453Z,102903.88
2022-08-09T00:10:21.153Z,102899.91
2022-08-09T00:12:52.695Z,102900.25
2022-08-09T00:15:26.752Z,102903.22
2022-08-09T00:18:12.159Z,102904.56
2022-08-09T00:20:42.524Z,102907.50
2022-08-09T00:23:57.425Z,102902.50
2022-08-09T00:26:06.940Z,102899.75
2022-08-09T00:28:34.769Z,102912.31
2022-08-09T00:31:09.227Z,102915.81
2022-08-09T00:33:51.797Z,102907.19
2022-08-09T00:36:19.544Z,102907.97
2022-08-09T00:38:46.422Z,102902.03
2022-08-09T00:44:10.643Z,102891.69
2022-08-09T00:44:11.381Z,102901.81
2022-08-09T00:46:57.712Z,102900.22
2022-08-09T00:49:34.855Z,102896.69
2022-08-09T00:52:15.826Z,102898.53
2022-08-09T00:54:44.928Z,102898.09
2022-08-09T00:57:11.697Z,102897.50
2022-08-09T00:59:47.141Z,102897.03
2022-08-09T01:02:22.453Z,102904.34
2022-08-09T01:04:56.309Z,102906.63
2022-08-09T01:07:37.953Z,102912.75
2022-08-09T01:10:31.306Z,102908.44
2022-08-09T01:13:04.148Z,102904.13
2022-08-09T01:15:41.077Z,102908.31
2022-08-09T01:18:29.980Z,102907.53
2022-08-09T01:21:41.355Z,102916.41
2022-08-09T01:24:40.053Z,102913.66
2022-08-09T01:27:13.294Z,102913.88
2022-08-09T01:29:55.515Z,102917.06
2022-08-09T01:32:32.094Z,102922.63
2022-08-09T01:35:07.245Z,102917.50
2022-08-09T01:38:09.697Z,102914.63
2022-08-09T01:40:42.574Z,102916.91
2022-08-09T01:43:11.161Z,102918.25
2022-08-09T01:45:44.848Z,102922.81
2022-08-09T01:48:17.040Z,102919.63
2022-08-09T01:50:55.056Z,102923.00
2022-08-09T01:53:23.828Z,102916.75
2022-08-09T01:55:57.203Z,102921.06
2022-08-09T01:58:26.008Z,102912.88
2022-08-09T02:00:57.942Z,102919.50
2022-08-09T02:03:25.684Z,102917.09
2022-08-09T02:06:03.879Z,102916.97
2022-08-09T02:08:57.051Z,102921.97
2022-08-09T02:11:43.603Z,102921.50
2022-08-09T02:14:15.933Z,102920.22
2022-08-09T02:17:15.237Z,102924.06
2022-08-09T02:19:43.057Z,102919.28
2022-08-09T02:22:34.837Z,102920.75
2022-08-09T02:25:06.734Z,102931.69
2022-08-09T02:27:57.486Z,102921.75
2022-08-09T02:30:26.389Z,102923.69
2022-08-09T02:32:55.299Z,102925.19
2022-08-09T02:36:03.350Z,102929.81
2022-08-09T02:38:22.133Z,102925.84
2022-08-09T02:41:01.953Z,102930.03
2022-08-09T02:43:53.967Z,102923.63
2022-08-09T02:46:18.460Z,102929.75
2022-08-09T02:48:46.836Z,102927.22
2022-08-09T02:51:20.197Z,102910.84
2022-08-09T02:53:59.678Z,102919.03
2022-08-09T02:56:27.939Z,102906.06
2022-08-09T02:58:55.637Z,102902.53
2022-08-09T03:01:29.176Z,102905.59
2022-08-09T03:04:17.131Z,102907.88
2022-08-09T03:06:46.895Z,102905.00
2022-08-09T03:09:17.648Z,102903.88
2022-08-09T03:12:10.618Z,102900.81
2022-08-09T03:14:32.900Z,102905.81
2022-08-09T03:17:01.550Z,102899.88
2022-08-09T03:19:57.774Z,102899.09
2022-08-09T03:22:25.027Z,102906.53
2022-08-09T03:25:06.332Z,102911.53
2022-08-09T03:27:48.060Z,102899.22
2022-08-09T03:30:29.281Z,102900.59
2022-08-09T03:32:58.441Z,102895.47
2022-08-09T03:36:13.617Z,102900.84
2022-08-09T03:38:28.489Z,102909.81
2022-08-09T03:40:55.561Z,102908.09
2022-08-09T03:43:22.184Z,102898.13
2022-08-09T03:46:05.159Z,102902.09
2022-08-09T03:48:36.951Z,102898.72
2022-08-09T03:51:56.771Z,102897.59
2022-08-09T03:53:58.969Z,102900.31
2022-08-09T03:56:26.440Z,102901.44
2022-08-09T03:58:53.482Z,102907.72
2022-08-09T04:01:22.476Z,102912.69
2022-08-09T04:04:01.207Z,102909.94
2022-08-09T04:06:29.533Z,102913.00
2022-08-09T04:08:56.154Z,102922.00
2022-08-09T04:11:22.604Z,102923.91
2022-08-09T04:15:00.322Z,102922.97
2022-08-09T04:16:38.944Z,102923.16
2022-08-09T04:19:10.938Z,102922.72
2022-08-09T04:21:43.044Z,102927.03
2022-08-09T04:24:09.607Z,102931.34
2022-08-09T04:26:38.421Z,102926.34
2022-08-09T04:29:10.811Z,102934.69
2022-08-09T04:31:47.184Z,102940.50
2022-08-09T04:34:14.058Z,102951.84
2022-08-09T04:36:50.101Z,102947.19
2022-08-09T04:39:17.038Z,102950.72
2022-08-09T04:41:44.201Z,102954.25
2022-08-09T04:44:14.629Z,102955.06
2022-08-09T04:46:58.402Z,102952.78
2022-08-09T04:49:53.846Z,102947.00
2022-08-09T04:52:26.211Z,102952.13
2022-08-09T04:54:59.440Z,102954.53
2022-08-09T04:57:26.830Z,102956.44
2022-08-09T05:00:13.834Z,102956.25
2022-08-09T05:02:44.253Z,102952.22
2022-08-09T05:05:18.955Z,102950.44
2022-08-09T05:10:25.699Z,102956.66
2022-08-09T05:12:52.686Z,102962.38
2022-08-09T05:15:24.606Z,102962.97
2022-08-09T05:18:42.789Z,102957.78
2022-08-09T05:20:52.157Z,102968.97
2022-08-09T05:23:53.988Z,102968.44
2022-08-09T05:26:05.274Z,102971.91
2022-08-09T05:28:31.691Z,102969.56
2022-08-09T05:30:58.855Z,102965.59
2022-08-09T05:33:26.331Z,102971.72
2022-08-09T05:35:59.501Z,102967.78
2022-08-09T05:38:27.936Z,102970.59
2022-08-09T05:40:54.531Z,102964.81
2022-08-09T05:43:20.972Z,102976.84
2022-08-09T05:45:55.796Z,102980.72
2022-08-09T05:48:27.858Z,102980.16
2022-08-09T05:51:16.851Z,102986.50
2022-08-09T05:53:56.684Z,102990.53
2022-08-09T05:56:26.067Z,102995.56
2022-08-09T05:58:58.518Z,102988.50
2022-08-09T06:01:33.723Z,102988.50
2022-08-09T06:04:09.719Z,102990.81
2022-08-09T06:06:40.774Z,102991.13
2022-08-09T06:09:53.835Z,102994.72
2022-08-09T06:11:59.078Z,102991.63
2022-08-09T06:14:25.885Z,102991.22
2022-08-09T06:16:52.820Z,102994.00
2022-08-09T06:19:19.408Z,102993.13
2022-08-09T06:21:51.542Z,102996.34
2022-08-09T06:24:24.993Z,102994.53
2022-08-09T06:26:51.451Z,103003.94
2022-08-09T06:29:18.471Z,103003.63
2022-08-09T06:32:08.812Z,103003.81
2022-08-09T06:34:34.947Z,102992.25
2022-08-09T06:37:03.181Z,102996.38
2022-08-09T06:39:39.681Z,102990.22
2022-08-09T06:42:15.994Z,102990.25
2022-08-09T06:44:42.395Z,102993.50
2022-08-09T06:47:09.996Z,103002.75
2022-08-09T06:50:11.837Z,103002.19
2022-08-09T06:52:37.952Z,103000.59
2022-08-09T06:55:12.592Z,103006.94
2022-08-09T06:58:01.805Z,103010.06
2022-08-09T07:00:54.117Z,103025.09
2022-08-09T07:03:13.325Z,103016.63
2022-08-09T07:05:58.570Z,103021.25
2022-08-09T07:08:26.855Z,103027.16
2022-08-09T07:10:57.214Z,103033.75
2022-08-09T07:13:29.373Z,103024.19
2022-08-09T07:16:43.270Z,103029.16
2022-08-09T07:18:44.292Z,103031.34
2022-08-09T07:21:14.244Z,103026.75
2022-08-09T07:23:46.684Z,103022.75
2022-08-09T07:26:24.390Z,103016.13
2022-08-09T07:29:09.211Z,103021.69
2022-08-09T07:31:38.421Z,103016.31
2022-08-09T07:34:05.516Z,103016.03
2022-08-09T07:36:36.015Z,103025.94
2022-08-09T07:39:03.103Z,103016.81
2022-08-09T07:41:33.126Z,103009.03
2022-08-09T07:44:05.619Z,103011.44
2022-08-09T07:46:33.373Z,103006.72
2022-08-09T07:49:04.033Z,103009.66
2022-08-09T07:52:03.530Z,103005.63
2022-08-09T07:54:30.101Z,103001.22
2022-08-09T07:56:58.619Z,102998.75
2022-08-09T07:59:34.599Z,103000.47
2022-08-09T08:02:16.706Z,102997.69
2022-08-09T08:04:48.957Z,103006.78
2022-08-09T08:08:44.155Z,103002.06
2022-08-09T08:10:08.617Z,103002.63
2022-08-09T08:12:43.409Z,103002.81
2022-08-09T08:15:16.912Z,103001.28
2022-08-09T08:17:54.741Z,103014.16
2022-08-09T08:20:29.298Z,103011.50
2022-08-09T08:23:01.714Z,103017.34
2022-08-09T08:25:44.546Z,103018.41
2022-08-09T08:28:14.131Z,103020.03
2022-08-09T08:30:41.890Z,103019.72
2022-08-09T08:33:11.807Z,103026.53
2022-08-09T08:35:59.663Z,103019.44
2022-08-09T08:38:25.542Z,103017.31
2022-08-09T08:40:56.600Z,103020.19
2022-08-09T08:43:23.741Z,103031.22
2022-08-09T08:46:24.917Z,103034.00
2022-08-09T08:48:53.569Z,103025.69
2022-08-09T08:51:23.037Z,103017.72
2022-08-09T08:54:04.516Z,103020.84
2022-08-09T08:56:36.159Z,103019.16
2022-08-09T08:59:19.908Z,103033.81
2022-08-09T09:01:52.309Z,103019.16
2022-08-09T09:04:26.782Z,103011.97
2022-08-09T09:06:58.062Z,103007.66
2022-08-09T09:09:57.826Z,103018.91
2022-08-09T09:12:18.058Z,103027.03
2022-08-09T09:14:46.543Z,103015.44
2022-08-09T09:17:16.379Z,103021.59
2022-08-09T09:19:44.399Z,103020.31
2022-08-09T09:22:15.920Z,103023.63
2022-08-09T09:24:45.668Z,103021.00
2022-08-09T09:28:04.421Z,103023.28
2022-08-09T09:30:28.736Z,103011.41
2022-08-09T09:33:13.753Z,103027.78
2022-08-09T09:36:02.104Z,103020.22
2022-08-09T09:38:44.700Z,103020.66
2022-08-09T09:41:33.374Z,103015.28
2022-08-09T09:44:39.667Z,103019.56
2022-08-09T09:47:11.929Z,103010.13
2022-08-09T09:50:07.516Z,103006.78
2022-08-09T09:52:36.470Z,103009.13
2022-08-09T09:55:24.392Z,103013.66
2022-08-09T09:58:03.665Z,103013.47
2022-08-09T10:00:33.688Z,103014.44
2022-08-09T10:03:11.705Z,103019.25
2022-08-09T10:06:04.757Z,103008.78
2022-08-09T10:08:32.002Z,103014.06
2022-08-09T10:10:58.627Z,103010.72
2022-08-09T10:13:45.180Z,103008.06
2022-08-09T10:16:57.312Z,103008.31
2022-08-09T10:19:07.551Z,102999.28
2022-08-09T10:21:45.625Z,103006.00
2022-08-09T10:24:25.629Z,103004.19
2022-08-09T10:27:02.917Z,103002.34
2022-08-09T10:30:34.180Z,102996.50
2022-08-09T10:32:42.827Z,103000.72
2022-08-09T10:35:10.538Z,102994.56
2022-08-09T10:37:40.276Z,102986.53
2022-08-09T10:40:11.940Z,102984.53
2022-08-09T10:42:55.959Z,102984.31
2022-08-09T10:45:24.272Z,102987.78
2022-08-09T10:48:26.254Z,102978.81
2022-08-09T10:51:09.425Z,102983.59
2022-08-09T10:53:46.955Z,102983.81
2022-08-09T10:56:23.443Z,102978.66
2022-08-09T10:58:55.161Z,102975.28
2022-08-09T11:03:13.559Z,102972.88
2022-08-09T11:04:31.411Z,102971.72
2022-08-09T11:07:00.018Z,102975.66
2022-08-09T11:09:41.125Z,102977.94
2022-08-09T11:12:29.408Z,102973.09
2022-08-09T11:15:19.535Z,102966.06
2022-08-09T11:18:02.764Z,102967.69
2022-08-09T11:20:45.609Z,102966.69
2022-08-09T11:23:13.675Z,102958.28
2022-08-09T11:25:47.625Z,102958.53
2022-08-09T11:28:38.832Z,102956.59
2022-08-09T11:31:49.105Z,102949.50
2022-08-09T11:34:29.504Z,102944.81
2022-08-09T11:36:58.665Z,102949.53
2022-08-09T11:39:25.426Z,102948.81
2022-08-09T11:42:08.090Z,102952.03
2022-08-09T11:44:45.392Z,102945.66
2022-08-09T11:47:14.529Z,102932.09
2022-08-09T11:50:56.897Z,102936.25
2022-08-09T11:53:15.592Z,102938.59
2022-08-09T11:55:52.163Z,102935.66
2022-08-09T11:58:30.313Z,102937.91
2022-08-09T12:01:15.596Z,102938.00
2022-08-09T12:04:00.809Z,102934.25
2022-08-09T12:06:32.866Z,102945.06
2022-08-09T12:09:19.529Z,102935.81
2022-08-09T12:12:02.753Z,102936.34
2022-08-09T12:14:40.826Z,102941.66
2022-08-09T12:17:33.875Z,102927.94
2022-08-09T12:20:16.677Z,102929.78
2022-08-09T12:22:52.163Z,102923.91
2022-08-09T12:25:36.157Z,102917.22
2022-08-09T12:28:58.818Z,102915.38
2022-08-09T12:31:59.406Z,102921.81
2022-08-09T12:34:13.773Z,102907.22
2022-08-09T12:36:58.656Z,102904.44
2022-08-09T12:39:25.964Z,102903.66
2022-08-09T12:41:54.664Z,102905.66
2022-08-09T12:44:24.575Z,102909.91
2022-08-09T12:46:51.422Z,102905.47
2022-08-09T12:49:19.110Z,102905.34
2022-08-09T12:52:02.022Z,102903.53
2022-08-09T12:54:29.696Z,102906.78
2022-08-09T12:56:58.843Z,102906.25
2022-08-09T12:59:57.907Z,102905.88
2022-08-09T13:02:17.795Z,102902.16
2022-08-09T13:04:59.781Z,102900.47
2022-08-09T13:07:50.908Z,102887.44
2022-08-09T13:10:17.024Z,102902.69
2022-08-09T13:13:09.013Z,102913.97
2022-08-09T13:15:35.655Z,102902.13
2022-08-09T13:18:05.693Z,102902.50
2022-08-09T13:21:04.166Z,102905.19
2022-08-09T13:24:07.153Z,102904.78
2022-08-09T13:26:37.204Z,102903.97
2022-08-09T13:29:07.501Z,102882.50
2022-08-09T13:32:17.100Z,102890.44
2022-08-09T13:34:21.052Z,102884.91
2022-08-09T13:36:47.579Z,102875.13
2022-08-09T13:41:18.910Z,102885.09
2022-08-09T13:42:03.271Z,102865.81
2022-08-09T13:44:30.773Z,102862.72
2022-08-09T13:47:26.916Z,102866.97
2022-08-09T13:49:57.347Z,102867.41
2022-08-09T13:52:28.881Z,102868.50
2022-08-09T13:55:00.100Z,102863.38
2022-08-09T13:57:35.885Z,102860.53
2022-08-09T14:00:28.328Z,102850.22
2022-08-09T14:03:03.441Z,102855.34
2022-08-09T14:05:59.643Z,102859.03
2022-08-09T14:08:30.001Z,102858.63
2022-08-09T14:10:59.588Z,102865.16
2022-08-09T14:14:15.896Z,102859.75
2022-08-09T14:16:16.513Z,102861.28
2022-08-09T14:18:49.286Z,102871.19
2022-08-09T14:21:18.482Z,102863.88
2022-08-09T14:23:55.321Z,102871.59
2022-08-09T14:26:32.748Z,102863.59
2022-08-09T14:29:25.235Z,102866.81
2022-08-09T14:31:58.210Z,102853.88
2022-08-09T14:34:33.011Z,102854.16
2022-08-09T14:37:08.829Z,102852.31
2022-08-09T14:39:45.743Z,102858.50
2022-08-09T14:42:28.729Z,102849.91
2022-08-09T14:46:39.673Z,102854.50
2022-08-09T14:47:57.524Z,102840.19
2022-08-09T14:50:26.149Z,102849.88
2022-08-09T14:52:53.475Z,102841.94
2022-08-09T14:55:21.562Z,102846.63
2022-08-09T14:57:49.048Z,102851.19
2022-08-09T15:00:16.275Z,102848.47
2022-08-09T15:02:47.122Z,102843.69
2022-08-09T15:05:15.218Z,102842.13
2022-08-09T15:07:45.358Z,102837.56
2022-08-09T15:10:24.943Z,102842.13
2022-08-09T15:12:52.585Z,102831.81
2022-08-09T15:15:20.287Z,102842.53
2022-08-09T15:17:52.555Z,102836.44
2022-08-09T15:21:58.346Z,102830.88
2022-08-09T15:24:01.275Z,102838.81
2022-08-09T15:25:53.602Z,102832.72
2022-08-09T15:28:26.016Z,102829.13
2022-08-09T15:31:03.061Z,102826.31
2022-08-09T15:34:19.545Z,102825.09
2022-08-09T15:36:28.703Z,102827.47
2022-08-09T15:38:57.160Z,102817.34
2022-08-09T15:41:32.095Z,102824.94
2022-08-09T15:44:00.564Z,102814.13
2022-08-09T15:46:34.189Z,102819.16
2022-08-09T15:49:23.561Z,102816.13
2022-08-09T15:52:02.857Z,102810.31
2022-08-09T15:54:44.308Z,102813.63
2022-08-09T15:57:19.126Z,102809.41
2022-08-09T16:00:01.405Z,102813.50
2022-08-09T16:02:27.832Z,102808.84
2022-08-09T16:04:54.454Z,102805.91
2022-08-09T16:07:20.953Z,102812.34
2022-08-09T16:09:57.953Z,102802.25
2022-08-09T16:12:32.142Z,102803.66
2022-08-09T16:14:59.075Z,102794.34
2022-08-09T16:17:28.731Z,102802.25
2022-08-09T16:20:04.807Z,102800.72
2022-08-09T16:22:42.298Z,102805.72
2022-08-09T16:25:15.935Z,102796.78
2022-08-09T16:27:42.544Z,102790.34
2022-08-09T16:30:14.946Z,102796.50
2022-08-09T16:33:04.118Z,102800.78
2022-08-09T16:35:55.765Z,102793.72
2022-08-09T16:38:18.511Z,102794.25
2022-08-09T16:40:45.173Z,102793.75
2022-08-09T16:43:12.181Z,102787.09
2022-08-09T16:45:45.256Z,102797.69
2022-08-09T16:48:39.162Z,102795.50
2022-08-09T16:51:07.874Z,102797.94
2022-08-09T16:53:36.283Z,102793.16
2022-08-09T16:56:10.124Z,102791.97
2022-08-09T16:58:39.653Z,102791.59
2022-08-09T17:01:09.288Z,102799.75
2022-08-09T17:03:37.149Z,102797.63
2022-08-09T17:06:28.103Z,102794.47
2022-08-09T17:08:59.014Z,102793.63
2022-08-09T17:11:32.991Z,102801.97
2022-08-09T17:14:08.476Z,102795.25
2022-08-09T17:16:53.485Z,102802.31
2022-08-09T17:19:20.831Z,102803.25
2022-08-09T17:21:47.752Z,102809.09
2022-08-09T17:24:30.302Z,102811.53
2022-08-09T17:26:59.643Z,102805.75
2022-08-09T17:29:31.636Z,102809.13
2022-08-09T17:32:04.434Z,102804.69
2022-08-09T17:35:02.046Z,102807.09
2022-08-09T17:37:19.284Z,102813.03
2022-08-09T17:39:52.579Z,102806.63
2022-08-09T17:42:42.107Z,102799.88
2022-08-09T17:45:15.964Z,102811.28
2022-08-09T17:47:55.619Z,102812.31
2022-08-09T17:50:36.025Z,102812.03
2022-08-09T17:53:10.290Z,102814.91
2022-08-09T17:55:50.215Z,102812.06
2022-08-09T17:58:19.076Z,102804.25
2022-08-09T18:00:48.155Z,102807.56
2022-08-09T18:03:17.606Z,102804.13
2022-08-09T18:05:44.595Z,102808.09
2022-08-09T18:08:13.239Z,102804.19
2022-08-09T18:10:46.140Z,102804.25
2022-08-09T18:13:43.000Z,102813.91
2022-08-09T18:16:14.210Z,102818.81
2022-08-09T18:18:49.340Z,102817.28
2022-08-09T18:21:23.038Z,102820.13
2022-08-09T18:24:09.633Z,102820.94
2022-08-09T18:26:37.888Z,102821.50
2022-08-09T18:30:41.579Z,102815.66
2022-08-09T18:31:56.346Z,102819.44
2022-08-09T18:34:23.873Z,102817.94
2022-08-09T18:36:53.363Z,102815.34
2022-08-09T18:39:22.440Z,102812.25
2022-08-09T18:41:53.055Z,102806.41
2022-08-09T18:44:25.656Z,102817.59
2022-08-09T18:47:07.699Z,102811.69
2022-08-09T18:49:46.585Z,102812.91
2022-08-09T18:52:28.418Z,102809.75
2022-08-09T18:55:13.486Z,102816.09
2022-08-09T18:57:43.444Z,102810.56
2022-08-09T19:00:16.675Z,102820.50
2022-08-09T19:02:48.242Z,102820.47
2022-08-09T19:05:19.707Z,102815.34
2022-08-09T19:08:04.920Z,102820.91
2022-08-09T19:10:36.940Z,102826.41
2022-08-09T19:13:20.650Z,102826.81
2022-08-09T19:15:51.197Z,102817.31
2022-08-09T19:18:34.109Z,102825.59
2022-08-09T19:21:09.117Z,102825.22
2022-08-09T19:24:32.489Z,102838.22
2022-08-09T19:26:31.815Z,102831.50
2022-08-09T19:29:17.684Z,102831.88
2022-08-09T19:31:51.327Z,102827.13
2022-08-09T19:34:24.418Z,102830.25
2022-08-09T19:36:53.019Z,102828.63
2022-08-09T19:39:43.045Z,102839.63
2022-08-09T19:42:08.351Z,102842.41
2022-08-09T19:44:35.513Z,102846.34
2022-08-09T19:47:02.632Z,102844.75
2022-08-09T19:50:07.863Z,102852.25
2022-08-09T19:52:22.096Z,102855.00
2022-08-09T19:54:50.750Z,102849.88
2022-08-09T19:57:17.337Z,102859.31
2022-08-09T20:00:05.501Z,102855.75
2022-08-09T20:04:23.611Z,102869.13
2022-08-09T20:05:17.018Z,102863.56
2022-08-09T20:07:58.785Z,102871.03
2022-08-09T20:10:34.851Z,102863.84
2022-08-09T20:13:05.182Z,102874.06
2022-08-09T20:16:38.343Z,102886.28
2022-08-09T20:18:18.812Z,102880.22
2022-08-09T20:20:46.583Z,102877.44
2022-08-09T20:23:13.334Z,102889.22
2022-08-09T20:25:52.118Z,102887.59
2022-08-09T20:28:27.597Z,102889.09
2022-08-09T20:31:02.665Z,102885.09
2022-08-09T20:33:41.205Z,102881.94
2022-08-09T20:36:14.166Z,102884.69
2022-08-09T20:41:34.914Z,102880.66
2022-08-09T20:44:06.802Z,102886.84
2022-08-09T20:46:44.187Z,102878.41
2022-08-09T20:49:12.262Z,102889.72
2022-08-09T20:51:40.972Z,102886.06
2022-08-09T20:54:08.400Z,102887.53
2022-08-09T20:56:39.572Z,102891.25
2022-08-09T20:59:07.688Z,102895.84
2022-08-09T21:01:51.478Z,102899.66
2022-08-09T21:05:55.220Z,102898.84
2022-08-09T21:07:11.434Z,102898.72
2022-08-09T21:09:41.869Z,102890.84
2022-08-09T21:14:41.911Z,102908.94
2022-08-09T21:18:22.454Z,102910.00
2022-08-09T21:20:18.833Z,102896.47
2022-08-09T21:22:47.063Z,102904.03
2022-08-09T21:25:38.363Z,102896.94
2022-08-09T21:28:07.401Z,102896.47
2022-08-09T21:30:40.483Z,102893.88
2022-08-09T21:33:08.170Z,102894.56
2022-08-09T21:35:40.844Z,102899.97
2022-08-09T21:38:31.023Z,102905.41
2022-08-09T21:40:59.094Z,102896.31
2022-08-09T21:43:55.987Z,102900.47
2022-08-09T21:46:12.288Z,102892.41
2022-08-09T21:48:42.729Z,102895.47
2022-08-09T21:51:24.018Z,102887.88
2022-08-09T21:53:54.433Z,102893.75
2022-08-09T21:56:33.960Z,102891.72
2022-08-09T21:59:09.384Z,102896.38
2022-08-09T22:01:59.374Z,102894.41
2022-08-09T22:04:22.782Z,102899.47
2022-08-09T22:07:09.283Z,102894.97
2022-08-09T22:09:38.624Z,102891.00
2022-08-09T22:12:18.314Z,102892.69
2022-08-09T22:14:46.003Z,102888.72
2022-08-09T22:17:13.148Z,102896.91
2022-08-09T22:19:58.589Z,102892.56
2022-08-09T22:22:27.590Z,102889.75
2022-08-09T22:26:07.324Z,102892.91
2022-08-09T22:27:42.143Z,102896.66
2022-08-09T22:30:09.608Z,102903.19
2022-08-09T22:32:36.028Z,102894.88
2022-08-09T22:35:06.902Z,102895.16
2022-08-09T22:38:06.680Z,102890.47
2022-08-09T22:40:34.407Z,102893.28
2022-08-09T22:43:01.220Z,102893.78
2022-08-09T22:48:10.964Z,102893.50
2022-08-09T22:48:35.609Z,102899.78
2022-08-09T22:51:10.751Z,102892.44
2022-08-09T22:53:58.409Z,102891.75
2022-08-09T22:56:33.809Z,102891.31
2022-08-09T22:59:05.682Z,102898.41
2022-08-09T23:01:32.959Z,102905.47
2022-08-09T23:04:05.822Z,102904.97
2022-08-09T23:06:52.053Z,102902.53
2022-08-09T23:09:18.892Z,102899.28
2022-08-09T23:11:45.394Z,102904.25
2022-08-09T23:14:17.355Z,102903.38
2022-08-09T23:16:44.545Z,102907.66
2022-08-09T23:19:11.165Z,102904.91
2022-08-09T23:21:38.484Z,102903.66
2022-08-09T23:24:07.167Z,102906.31
2022-08-09T23:26:38.532Z,102901.94
2022-08-09T23:29:07.256Z,102908.13
2022-08-09T23:31:34.417Z,102904.44
2022-08-09T23:34:03.879Z,102906.34
2022-08-09T23:36:30.685Z,102905.03
2022-08-09T23:38:57.182Z,102901.41
2022-08-09T23:41:28.530Z,102893.53
2022-08-09T23:44:00.244Z,102890.63
2022-08-09T23:46:29.382Z,102892.50
2022-08-09T23:48:56.733Z,102897.16
2022-08-09T23:51:23.278Z,102897.91
2022-08-09T23:53:51.480Z,102895.06
2022-08-09T23:56:21.854Z,102889.13
2022-08-09T23:59:06.238Z,102886.28
